Terminal Aerodrome Forecast
Issued by NWS Knoxville/Tri Cities, TN

Home | Current Version | Previous Version | Text Only | Print | Product List | Glossary On
Versions: 1 2 3 4 5 6 7 8 9 10 11 12 13 14 15 16 17 18 19 20 21 22 23 24 25 26 27 28
000
FTUS44 KMRX 231720
TAFTRI
TAF
KTRI 231720Z 2318/2418 10005KT P6SM FEW060
     FM240100 00000KT P6SM SKC
     FM240800 00000KT 4SM BR FEW010
     FM241300 VRB03KT P6SM FEW030=

USA.gov is the U.S. government's official web portal to all federal, state and local government web resources and services.